createdAt,value
2022-10-17T00:00:22.453Z,76.43
2022-10-17T00:02:50.409Z,76.04
2022-10-17T00:05:17.982Z,75.78
2022-10-17T00:07:45.549Z,76.24
2022-10-17T00:10:13.201Z,76.15
2022-10-17T00:12:41.220Z,75.83
2022-10-17T00:15:09.387Z,75.83
2022-10-17T00:17:38.471Z,76.29
2022-10-17T00:20:06.059Z,76.55
2022-10-17T00:22:33.647Z,75.81
2022-10-17T00:25:01.316Z,76.67
2022-10-17T00:27:29.889Z,76.82
2022-10-17T00:29:57.640Z,76.51
2022-10-17T00:32:25.583Z,77.00
2022-10-17T00:34:53.833Z,76.96
2022-10-17T00:37:21.384Z,76.85
2022-10-17T00:39:49.343Z,77.15
2022-10-17T00:42:16.896Z,76.45
2022-10-17T00:44:47.502Z,76.78
2022-10-17T00:47:15.174Z,76.05
2022-10-17T00:49:42.771Z,75.55
2022-10-17T00:52:10.687Z,75.09
2022-10-17T00:54:38.291Z,74.75
2022-10-17T00:57:06.245Z,74.30
2022-10-17T00:59:33.818Z,74.02
2022-10-17T01:02:01.399Z,73.99
2022-10-17T01:04:29.551Z,73.89
2022-10-17T01:06:57.071Z,73.65
2022-10-17T01:09:24.638Z,73.54
2022-10-17T01:11:52.214Z,73.47
2022-10-17T01:14:19.860Z,73.76
2022-10-17T01:16:49.576Z,73.60
2022-10-17T01:19:17.189Z,73.61
2022-10-17T01:21:44.754Z,73.63
2022-10-17T01:24:12.332Z,72.95
2022-10-17T01:26:39.885Z,73.33
2022-10-17T01:29:07.912Z,72.91
2022-10-17T01:31:35.478Z,72.59
2022-10-17T01:34:03.041Z,72.39
2022-10-17T01:36:30.602Z,72.63
2022-10-17T01:38:58.192Z,72.84
2022-10-17T01:41:26.391Z,72.49
2022-10-17T01:43:53.928Z,72.09
2022-10-17T01:46:21.535Z,72.39
2022-10-17T01:48:49.090Z,72.22
2022-10-17T01:51:17.013Z,72.67
2022-10-17T01:53:44.888Z,72.91
2022-10-17T01:56:12.429Z,72.09
2022-10-17T01:58:39.997Z,72.32
2022-10-17T02:01:07.719Z,72.14
2022-10-17T02:03:35.314Z,72.26
2022-10-17T02:06:03.408Z,72.61
2022-10-17T02:08:30.992Z,72.63
2022-10-17T02:10:58.552Z,72.51
2022-10-17T02:13:26.105Z,72.26
2022-10-17T02:15:53.702Z,72.18
2022-10-17T02:18:21.827Z,72.72
2022-10-17T02:20:49.408Z,72.46
2022-10-17T02:23:20.343Z,72.54
2022-10-17T02:25:47.952Z,72.68
2022-10-17T02:28:15.542Z,72.45
2022-10-17T02:30:43.745Z,72.80
2022-10-17T02:33:11.439Z,72.56
2022-10-17T02:35:39.003Z,72.66
2022-10-17T02:38:06.691Z,72.77
2022-10-17T02:40:34.234Z,73.12
2022-10-17T02:43:02.610Z,72.68
2022-10-17T02:45:30.230Z,72.82
2022-10-17T02:47:57.781Z,72.91
2022-10-17T02:50:25.399Z,73.01
2022-10-17T02:52:52.987Z,73.41
2022-10-17T02:55:20.875Z,73.05
2022-10-17T02:57:48.419Z,73.42
2022-10-17T03:00:15.991Z,73.56
2022-10-17T03:02:43.542Z,73.20
2022-10-17T03:05:11.103Z,73.11
2022-10-17T03:07:40.486Z,73.66
2022-10-17T03:10:08.022Z,72.90
2022-10-17T03:12:35.544Z,73.07
2022-10-17T03:15:03.118Z,73.27
2022-10-17T03:17:30.723Z,73.69
2022-10-17T03:19:58.757Z,73.97
2022-10-17T03:22:26.543Z,73.76
2022-10-17T03:24:54.336Z,73.63
2022-10-17T03:27:21.840Z,73.92
2022-10-17T03:29:49.708Z,74.22
2022-10-17T03:32:17.626Z,74.04
2022-10-17T03:34:45.164Z,73.67
2022-10-17T03:37:12.764Z,73.99
2022-10-17T03:39:40.298Z,73.68
2022-10-17T03:42:07.842Z,73.38
2022-10-17T03:44:35.945Z,73.96
2022-10-17T03:47:03.500Z,73.94
2022-10-17T03:49:31.038Z,73.85
2022-10-17T03:51:59.074Z,73.50
2022-10-17T03:54:26.596Z,74.01
2022-10-17T03:56:54.744Z,73.94
2022-10-17T03:59:22.352Z,73.55
2022-10-17T04:01:49.892Z,73.67
2022-10-17T04:04:17.427Z,73.75
2022-10-17T04:06:44.997Z,73.68
2022-10-17T04:09:13.118Z,73.57
2022-10-17T04:11:40.645Z,73.65
2022-10-17T04:14:08.699Z,73.86
2022-10-17T04:16:36.251Z,73.67
2022-10-17T04:19:04.167Z,73.47
2022-10-17T04:21:32.121Z,74.05
2022-10-17T04:23:59.683Z,73.47
2022-10-17T04:26:27.252Z,73.83
2022-10-17T04:28:54.869Z,73.78
2022-10-17T04:31:22.404Z,73.70
2022-10-17T04:33:50.542Z,73.68
2022-10-17T04:36:18.502Z,73.29
2022-10-17T04:38:46.059Z,73.80
2022-10-17T04:41:13.660Z,73.94
2022-10-17T04:43:41.235Z,73.85
2022-10-17T04:46:09.359Z,73.86
2022-10-17T04:48:36.921Z,73.72
2022-10-17T04:51:04.506Z,73.77
2022-10-17T04:53:32.158Z,73.82
2022-10-17T04:55:59.681Z,73.47
2022-10-17T04:58:29.135Z,73.61
2022-10-17T05:00:56.758Z,73.70
2022-10-17T05:03:24.323Z,73.99
2022-10-17T05:05:51.931Z,73.29
2022-10-17T05:08:19.479Z,73.50
2022-10-17T05:10:47.995Z,73.20
2022-10-17T05:13:15.622Z,73.37
2022-10-17T05:15:43.193Z,73.19
2022-10-17T05:18:11.178Z,73.35
2022-10-17T05:20:39.387Z,73.30
2022-10-17T05:23:07.121Z,73.92
2022-10-17T05:25:34.679Z,73.56
2022-10-17T05:28:02.276Z,73.46
2022-10-17T05:30:33.732Z,73.66
2022-10-17T05:33:04.454Z,73.70
2022-10-17T05:35:32.343Z,73.07
2022-10-17T05:38:00.696Z,73.37
2022-10-17T05:40:28.273Z,73.46
2022-10-17T05:42:55.807Z,73.25
2022-10-17T05:45:23.347Z,73.13
2022-10-17T05:47:50.994Z,73.44
2022-10-17T05:50:21.055Z,73.55
2022-10-17T05:52:48.605Z,72.95
2022-10-17T05:55:16.212Z,73.47
2022-10-17T05:57:43.772Z,73.13
2022-10-17T06:00:11.905Z,73.45
2022-10-17T06:02:40.009Z,73.17
2022-10-17T06:05:07.585Z,73.10
2022-10-17T06:07:35.125Z,72.82
2022-10-17T06:10:02.769Z,72.89
2022-10-17T06:12:31.199Z,73.16
2022-10-17T06:14:59.063Z,72.51
2022-10-17T06:17:26.765Z,73.01
2022-10-17T06:19:54.373Z,72.97
2022-10-17T06:22:21.995Z,72.95
2022-10-17T06:24:53.215Z,72.84
2022-10-17T06:27:20.800Z,72.75
2022-10-17T06:29:48.393Z,72.65
2022-10-17T06:32:16.047Z,72.29
2022-10-17T06:34:43.652Z,72.62
2022-10-17T06:37:11.833Z,72.17
2022-10-17T06:39:39.528Z,72.14
2022-10-17T06:42:07.097Z,72.41
2022-10-17T06:44:34.688Z,72.14
2022-10-17T06:47:02.346Z,72.52
2022-10-17T06:49:30.240Z,71.93
2022-10-17T06:51:57.859Z,72.03
2022-10-17T06:54:25.546Z,72.01
2022-10-17T06:56:53.164Z,72.40
2022-10-17T06:59:20.817Z,71.80
2022-10-17T07:01:49.017Z,71.42
2022-10-17T07:04:16.675Z,71.79
2022-10-17T07:06:44.736Z,71.99
2022-10-17T07:09:12.491Z,71.56
2022-10-17T07:11:40.402Z,71.49
2022-10-17T07:14:08.951Z,71.66
2022-10-17T07:16:36.638Z,71.79
2022-10-17T07:19:04.366Z,71.32
2022-10-17T07:21:35.249Z,71.18
2022-10-17T07:24:07.285Z,71.09
2022-10-17T07:26:35.602Z,71.25
2022-10-17T07:29:03.788Z,71.36
2022-10-17T07:31:31.615Z,71.24
2022-10-17T07:33:59.320Z,70.81
2022-10-17T07:36:27.037Z,70.86
2022-10-17T07:38:55.150Z,70.80
2022-10-17T07:41:22.792Z,70.16
2022-10-17T07:43:50.424Z,70.18
2022-10-17T07:46:18.211Z,69.95
2022-10-17T07:48:46.308Z,70.21
2022-10-17T07:51:15.913Z,70.27
2022-10-17T07:53:47.975Z,69.60
2022-10-17T07:56:16.582Z,69.49
2022-10-17T07:58:44.385Z,69.78
2022-10-17T08:01:16.208Z,69.19
2022-10-17T08:03:44.541Z,69.29
2022-10-17T08:06:12.257Z,69.47
2022-10-17T08:08:40.055Z,69.37
2022-10-17T08:11:07.796Z,69.23
2022-10-17T08:13:35.526Z,69.54
2022-10-17T08:16:03.746Z,68.93
2022-10-17T08:18:31.533Z,69.24
2022-10-17T08:21:00.208Z,69.01
2022-10-17T08:23:28.119Z,68.85
2022-10-17T08:25:55.767Z,69.26
2022-10-17T08:28:24.200Z,68.87
2022-10-17T08:30:52.035Z,68.49
2022-10-17T08:33:20.060Z,68.58
2022-10-17T08:35:47.861Z,68.35
2022-10-17T08:38:16.880Z,68.09
2022-10-17T08:40:47.935Z,67.60
2022-10-17T08:43:15.649Z,67.41
2022-10-17T08:45:43.412Z,67.17
2022-10-17T08:48:11.159Z,67.45
2022-10-17T08:50:38.882Z,67.04
2022-10-17T08:53:07.125Z,67.33
2022-10-17T08:55:35.785Z,67.00
2022-10-17T08:58:04.782Z,67.14
2022-10-17T09:00:32.577Z,66.65
2022-10-17T09:03:00.270Z,66.55
2022-10-17T09:05:28.728Z,66.24
2022-10-17T09:07:56.512Z,66.44
2022-10-17T09:10:24.199Z,66.48
2022-10-17T09:12:51.898Z,65.97
2022-10-17T09:15:19.566Z,65.91
2022-10-17T09:17:50.268Z,66.24
2022-10-17T09:20:17.904Z,65.55
2022-10-17T09:22:45.682Z,65.65
2022-10-17T09:25:13.574Z,65.01
2022-10-17T09:27:41.416Z,65.60
2022-10-17T09:30:13.031Z,64.83
2022-10-17T09:32:44.953Z,65.36
2022-10-17T09:35:12.825Z,64.72
2022-10-17T09:37:40.497Z,65.15
2022-10-17T09:40:08.152Z,65.04
2022-10-17T09:42:36.365Z,64.91
2022-10-17T09:45:04.810Z,64.69
2022-10-17T09:47:32.568Z,64.08
2022-10-17T09:50:00.307Z,63.85
2022-10-17T09:52:28.320Z,63.48
2022-10-17T09:54:56.829Z,63.47
2022-10-17T09:57:25.696Z,61.61
2022-10-17T09:59:53.889Z,60.68
2022-10-17T10:02:21.629Z,59.96
2022-10-17T10:05:03.771Z,59.31
2022-10-17T10:07:33.056Z,58.85
2022-10-17T10:10:00.860Z,58.89
2022-10-17T10:12:28.855Z,59.04
2022-10-17T10:14:56.705Z,59.39
2022-10-17T10:17:24.600Z,60.03
2022-10-17T10:19:52.849Z,60.28
2022-10-17T10:22:20.549Z,61.00
2022-10-17T10:24:48.523Z,60.67
2022-10-17T10:27:16.367Z,61.68
2022-10-17T10:29:44.778Z,61.48
2022-10-17T10:32:13.311Z,61.62
2022-10-17T10:34:42.501Z,62.15
2022-10-17T10:37:13.438Z,62.15
2022-10-17T10:39:44.104Z,62.11
2022-10-17T10:42:11.917Z,62.90
2022-10-17T10:44:41.304Z,63.30
2022-10-17T10:47:09.196Z,63.04
2022-10-17T10:49:36.916Z,63.20
2022-10-17T10:52:04.837Z,63.39
2022-10-17T10:54:32.790Z,63.37
2022-10-17T10:57:01.009Z,62.86
2022-10-17T10:59:29.172Z,62.58
2022-10-17T11:01:57.479Z,62.50
2022-10-17T11:04:25.285Z,62.43
2022-10-17T11:06:53.055Z,62.50
2022-10-17T11:09:21.644Z,62.76
2022-10-17T11:11:49.498Z,62.94
2022-10-17T11:14:17.259Z,62.77
2022-10-17T11:16:44.968Z,62.93
2022-10-17T11:19:14.072Z,62.67
2022-10-17T11:21:42.517Z,63.20
2022-10-17T11:24:10.854Z,63.16
2022-10-17T11:26:38.556Z,63.56
2022-10-17T11:29:06.730Z,63.62
2022-10-17T11:31:34.575Z,63.66
2022-10-17T11:34:02.983Z,63.46
2022-10-17T11:36:30.696Z,63.57
2022-10-17T11:38:58.548Z,62.96
2022-10-17T11:41:26.411Z,63.17
2022-10-17T11:43:54.310Z,63.32
2022-10-17T11:46:23.993Z,63.34
2022-10-17T11:48:51.751Z,63.67
2022-10-17T11:54:07.351Z,63.68
2022-10-17T11:56:38.028Z,63.82
2022-10-17T11:59:08.199Z,64.25
2022-10-17T12:01:36.130Z,63.50
2022-10-17T12:04:03.963Z,64.26
2022-10-17T12:06:32.233Z,64.09
2022-10-17T12:09:00.705Z,63.83
2022-10-17T12:11:28.688Z,64.33
2022-10-17T12:13:57.146Z,63.92
2022-10-17T12:16:25.043Z,64.42
2022-10-17T12:18:52.808Z,63.89
2022-10-17T12:21:22.452Z,64.09
2022-10-17T12:23:50.400Z,64.87
2022-10-17T12:26:18.176Z,64.62
2022-10-17T12:28:46.469Z,64.41
2022-10-17T12:31:14.765Z,64.45
2022-10-17T12:33:42.821Z,64.48
2022-10-17T12:36:10.625Z,64.61
2022-10-17T12:38:38.371Z,64.00
2022-10-17T12:41:06.537Z,64.41
2022-10-17T12:43:34.391Z,64.69
2022-10-17T12:46:02.714Z,64.07
2022-10-17T12:48:30.486Z,64.02
2022-10-17T12:51:17.614Z,63.59
2022-10-17T12:53:46.716Z,63.84
2022-10-17T12:56:14.901Z,63.49
2022-10-17T12:58:42.643Z,63.04
2022-10-17T13:01:23.555Z,63.49
2022-10-17T13:03:52.816Z,63.43
2022-10-17T13:06:20.921Z,63.34
2022-10-17T13:08:52.207Z,63.21
2022-10-17T13:11:23.164Z,63.60
2022-10-17T13:13:52.194Z,63.78
2022-10-17T13:16:19.978Z,63.57
2022-10-17T13:18:48.262Z,63.52
2022-10-17T13:21:16.236Z,63.71
2022-10-17T13:23:44.134Z,63.37
2022-10-17T13:26:11.962Z,63.83
2022-10-17T13:28:40.043Z,63.27
2022-10-17T13:31:08.744Z,63.48
2022-10-17T13:33:38.337Z,63.19
2022-10-17T13:36:06.231Z,63.55
2022-10-17T13:38:35.785Z,63.83
2022-10-17T13:41:33.532Z,63.91
2022-10-17T13:43:54.566Z,64.27
2022-10-17T13:46:36.800Z,64.17
2022-10-17T13:49:05.626Z,63.92
2022-10-17T13:51:33.740Z,64.09
2022-10-17T13:54:03.244Z,64.51
2022-10-17T13:56:32.090Z,64.67
2022-10-17T13:59:00.116Z,64.85
2022-10-17T14:01:28.033Z,64.40
2022-10-17T14:04:07.971Z,64.60
2022-10-17T14:06:37.636Z,64.26
2022-10-17T14:09:05.595Z,64.68
2022-10-17T14:11:33.310Z,64.79
2022-10-17T14:14:01.231Z,64.60
2022-10-17T14:16:29.555Z,64.62
2022-10-17T14:18:58.184Z,65.31
2022-10-17T14:21:43.235Z,64.90
2022-10-17T14:24:12.162Z,65.45
2022-10-17T14:26:40.032Z,65.30
2022-10-17T14:29:08.593Z,65.63
2022-10-17T14:31:36.470Z,65.39
2022-10-17T14:34:04.773Z,65.67
2022-10-17T14:36:32.742Z,65.58
2022-10-17T14:39:01.768Z,65.70
2022-10-17T14:41:47.302Z,66.00
2022-10-17T14:44:15.535Z,65.78
2022-10-17T14:46:47.293Z,65.44
2022-10-17T14:49:23.184Z,65.75
2022-10-17T14:52:03.947Z,65.68
2022-10-17T14:54:35.672Z,65.56
2022-10-17T14:57:03.584Z,65.52
2022-10-17T14:59:52.860Z,65.55
2022-10-17T15:02:20.209Z,65.71
2022-10-17T15:04:48.131Z,66.25
2022-10-17T15:07:15.830Z,65.86
2022-10-17T15:09:43.798Z,65.92
2022-10-17T15:12:11.634Z,66.04
2022-10-17T15:14:41.697Z,66.17
2022-10-17T15:17:09.672Z,66.34
2022-10-17T15:19:37.573Z,66.25
2022-10-17T15:22:05.588Z,66.56
2022-10-17T15:24:33.491Z,66.61
2022-10-17T15:27:02.424Z,66.26
2022-10-17T15:29:30.347Z,66.86
2022-10-17T15:31:58.298Z,67.06
2022-10-17T15:34:26.196Z,67.33
2022-10-17T15:36:59.025Z,66.95
2022-10-17T15:39:27.749Z,67.45
2022-10-17T15:41:55.578Z,67.05
2022-10-17T15:44:23.418Z,67.07
2022-10-17T15:46:51.348Z,67.32
2022-10-17T15:49:19.960Z,67.63
2022-10-17T15:51:53.042Z,67.82
2022-10-17T15:54:23.013Z,68.03
2022-10-17T15:56:50.907Z,68.67
2022-10-17T15:59:18.742Z,68.63
2022-10-17T16:01:46.567Z,68.14
2022-10-17T16:04:16.254Z,68.75
2022-10-17T16:06:44.179Z,68.65
2022-10-17T16:09:11.991Z,68.56
2022-10-17T16:11:39.931Z,68.84
2022-10-17T16:14:07.807Z,69.11
2022-10-17T16:16:35.900Z,68.79
2022-10-17T16:19:03.865Z,69.02
2022-10-17T16:24:04.460Z,69.61
2022-10-17T16:26:32.354Z,69.36
2022-10-17T16:29:03.500Z,69.42
2022-10-17T16:31:31.415Z,69.61
2022-10-17T16:33:59.215Z,69.44
2022-10-17T16:36:27.038Z,69.97
2022-10-17T16:38:55.432Z,69.67
2022-10-17T16:41:24.150Z,70.15
2022-10-17T16:43:52.065Z,70.04
2022-10-17T16:46:19.922Z,70.37
2022-10-17T16:48:47.793Z,69.81
2022-10-17T16:51:15.680Z,70.40
2022-10-17T16:53:45.450Z,70.81
2022-10-17T16:56:13.343Z,70.69
2022-10-17T16:58:41.124Z,70.84
2022-10-17T17:01:09.060Z,70.81
2022-10-17T17:03:36.940Z,71.42
2022-10-17T17:06:05.588Z,71.26
2022-10-17T17:08:34.397Z,71.82
2022-10-17T17:11:02.126Z,72.19
2022-10-17T17:13:30.419Z,71.86
2022-10-17T17:15:58.255Z,72.02
2022-10-17T17:18:26.546Z,72.51
2022-10-17T17:20:54.445Z,72.60
2022-10-17T17:23:22.796Z,72.56
2022-10-17T17:25:50.900Z,72.64
2022-10-17T17:28:18.761Z,72.43
2022-10-17T17:30:47.329Z,73.02
2022-10-17T17:33:15.343Z,73.05
2022-10-17T17:35:43.101Z,73.17
2022-10-17T17:38:11.076Z,72.95
2022-10-17T17:40:38.954Z,73.54
2022-10-17T17:43:07.424Z,73.71
2022-10-17T17:45:35.314Z,73.91
2022-10-17T17:48:03.235Z,74.19
2022-10-17T17:50:31.036Z,74.05
2022-10-17T17:52:58.869Z,74.03
2022-10-17T17:55:27.510Z,74.28
2022-10-17T17:57:55.512Z,74.00
2022-10-17T18:00:23.505Z,74.16
2022-10-17T18:02:51.235Z,74.20
2022-10-17T18:05:19.078Z,74.52
2022-10-17T18:07:48.204Z,74.17
2022-10-17T18:10:15.969Z,74.07
2022-10-17T18:12:43.905Z,74.74
2022-10-17T18:15:11.779Z,74.64
2022-10-17T18:17:39.714Z,74.61
2022-10-17T18:20:08.720Z,75.10
2022-10-17T18:22:37.118Z,75.20
2022-10-17T18:25:05.827Z,75.77
2022-10-17T18:27:34.151Z,75.26
2022-10-17T18:30:01.997Z,76.03
2022-10-17T18:32:30.834Z,75.74
2022-10-17T18:34:59.016Z,75.84
2022-10-17T18:37:26.894Z,75.67
2022-10-17T18:39:56.050Z,75.75
2022-10-17T18:42:23.868Z,75.75
2022-10-17T18:44:52.156Z,76.06
2022-10-17T18:47:19.980Z,75.65
2022-10-17T18:49:48.437Z,75.92
2022-10-17T18:52:16.283Z,75.84
2022-10-17T18:54:44.298Z,76.00
2022-10-17T18:57:12.848Z,75.98
2022-10-17T18:59:40.894Z,75.65
2022-10-17T19:02:10.059Z,75.94
2022-10-17T19:04:38.003Z,76.10
2022-10-17T19:07:06.071Z,76.06
2022-10-17T19:09:34.418Z,75.77
2022-10-17T19:12:02.702Z,76.12
2022-10-17T19:14:30.836Z,75.90
2022-10-17T19:16:59.930Z,75.69
2022-10-17T19:19:27.696Z,75.64
2022-10-17T19:21:55.947Z,75.70
2022-10-17T19:24:23.844Z,75.95
2022-10-17T19:26:53.573Z,75.59
2022-10-17T19:29:21.368Z,76.00
2022-10-17T19:31:49.338Z,75.70
2022-10-17T19:34:18.989Z,75.99
2022-10-17T19:36:46.807Z,75.91
2022-10-17T19:39:14.687Z,76.09
2022-10-17T19:41:42.608Z,76.53
2022-10-17T19:44:10.568Z,76.00
2022-10-17T19:46:38.845Z,75.93
2022-10-17T19:49:06.725Z,76.05
2022-10-17T19:51:34.623Z,76.16
2022-10-17T19:54:02.418Z,76.29
2022-10-17T19:56:30.495Z,76.19
2022-10-17T19:58:59.102Z,76.09
2022-10-17T20:01:27.082Z,76.50
2022-10-17T20:03:54.874Z,76.92
2022-10-17T20:06:22.807Z,76.51
2022-10-17T20:08:50.513Z,76.32
2022-10-17T20:11:18.671Z,76.63
2022-10-17T20:13:46.579Z,76.42
2022-10-17T20:16:14.389Z,76.45
2022-10-17T20:18:42.201Z,76.68
2022-10-17T20:21:10.069Z,77.09
2022-10-17T20:23:38.378Z,77.06
2022-10-17T20:26:25.407Z,76.81
2022-10-17T20:28:54.188Z,77.24
2022-10-17T20:31:22.089Z,77.15
2022-10-17T20:33:50.734Z,76.94
2022-10-17T20:36:23.493Z,77.29
2022-10-17T20:38:51.598Z,77.06
2022-10-17T20:41:19.435Z,77.17
2022-10-17T20:43:47.191Z,76.90
2022-10-17T20:46:29.460Z,77.35
2022-10-17T20:49:03.341Z,77.68
2022-10-17T20:51:31.148Z,77.45
2022-10-17T20:53:59.010Z,77.54
2022-10-17T20:56:27.472Z,77.63
2022-10-17T20:58:55.813Z,77.64
2022-10-17T21:01:23.767Z,78.00
2022-10-17T21:03:51.609Z,77.49
2022-10-17T21:06:19.351Z,77.61
2022-10-17T21:08:47.887Z,77.81
2022-10-17T21:11:15.684Z,77.63
2022-10-17T21:13:43.466Z,77.77
2022-10-17T21:16:11.260Z,77.83
2022-10-17T21:18:39.134Z,78.05
2022-10-17T21:21:09.274Z,78.21
2022-10-17T21:23:36.995Z,78.14
2022-10-17T21:26:07.439Z,78.24
2022-10-17T21:28:35.697Z,77.98
2022-10-17T21:31:03.369Z,78.39
2022-10-17T21:33:31.844Z,78.22
2022-10-17T21:35:59.588Z,77.89
2022-10-17T21:38:27.398Z,78.46
2022-10-17T21:40:56.092Z,78.06
2022-10-17T21:43:23.971Z,78.55
2022-10-17T21:45:51.959Z,78.60
2022-10-17T21:48:19.750Z,78.10
2022-10-17T21:50:47.431Z,78.65
2022-10-17T21:53:15.130Z,78.10
2022-10-17T21:55:42.906Z,78.70
2022-10-17T21:58:11.009Z,78.28
2022-10-17T22:00:38.827Z,78.77
2022-10-17T22:03:07.448Z,78.38
2022-10-17T22:05:35.061Z,78.74
2022-10-17T22:08:02.804Z,78.38
2022-10-17T22:10:30.982Z,78.22
2022-10-17T22:12:58.706Z,78.72
2022-10-17T22:15:26.349Z,78.60
2022-10-17T22:17:54.141Z,78.41
2022-10-17T22:20:21.919Z,78.30
2022-10-17T22:22:49.839Z,78.29
2022-10-17T22:25:17.933Z,78.60
2022-10-17T22:27:45.575Z,78.36
2022-10-17T22:30:13.198Z,78.30
2022-10-17T22:32:40.932Z,78.38
2022-10-17T22:35:09.059Z,78.58
2022-10-17T22:37:36.658Z,78.40
2022-10-17T22:40:04.400Z,78.28
2022-10-17T22:42:34.579Z,78.59
2022-10-17T22:45:02.960Z,78.63
2022-10-17T22:47:31.365Z,78.86
2022-10-17T22:49:59.308Z,78.15
2022-10-17T22:52:27.057Z,78.03
2022-10-17T22:54:54.798Z,78.47
2022-10-17T22:57:22.440Z,78.54
2022-10-17T22:59:50.269Z,78.25
2022-10-17T23:02:17.894Z,78.32
2022-10-17T23:04:45.548Z,78.50
2022-10-17T23:07:14.367Z,78.96
2022-10-17T23:09:42.003Z,78.79
2022-10-17T23:12:10.412Z,79.01
2022-10-17T23:14:38.740Z,79.03
2022-10-17T23:17:06.368Z,78.42
2022-10-17T23:19:34.051Z,79.13
2022-10-17T23:22:01.710Z,78.66
2022-10-17T23:24:29.684Z,78.49
2022-10-17T23:26:57.306Z,78.74
2022-10-17T23:29:25.325Z,78.83
2022-10-17T23:31:53.011Z,78.59
2022-10-17T23:34:20.615Z,78.79
2022-10-17T23:36:48.452Z,78.43
2022-10-17T23:39:16.143Z,78.31
2022-10-17T23:41:43.729Z,78.52
2022-10-17T23:44:11.407Z,78.69
2022-10-17T23:46:39.066Z,78.60
2022-10-17T23:49:06.961Z,78.57
2022-10-17T23:51:34.817Z,79.30
2022-10-17T23:54:02.562Z,79.32
2022-10-17T23:56:30.147Z,79.13
2022-10-17T23:58:57.697Z,78.79
